Idaho Falls Regional Airport
KIDA : now visible

Airfield :











YOU CAN JOIN US ON...

 
LOGIN :

Register | Disclaimer

   EN    FR    IT 

 









Legend :    VFR   Marginal VFR   IFR   Intensive IFR   Very Intensive IFR
Visi :
Ceiling :
>= 8 km
>= 3000ft
5 to 8 km
1000 to 3000 ft
1500m to 5 km
500 to 1000 ft
800 to 1500m
200 to 500 ft
< 800m
< 200 ft
Symbols :   Thunderstorms  Fog  Heavy snow  Heavy precipitations  Wind > 20 kt






- Airport Elevation : 4744 ft
- IATA code : IDA


KIDA - Idaho Falls Regional

CURRENT METAR :
  • 041353Z AUTO 36008KT 10SM OVC037 M07/M11 A3010 RMK AO2 SLP251 T10721106

EXPIRED METARs :
  • 041253Z AUTO 36006KT 10SM OVC070 M08/M12 A3013 RMK AO2 SLP262 T10831117
  • 041153Z AUTO 35005KT 10SM BKN055 M09/M13 A3017 RMK AO2 SLP274 T10941133 11094 21133 56017

TAF KIDA
Valid from the 04 at 12:00 until the 05 at 12:00 UTC


041135Z 0412/0512 01009KT P6SM OVC050
FM041700 36006KT 4SM -SN BR SCT008 OVC015
TEMPO 0417/0421 1/2SM SN FZFG BKN008 OVC015
FM042100 34006KT 1/2SM SN FZFG BKN005 OVC008
FM050000 22011KT 1SM -SN BR SCT005 OVC008
FM050700 21019KT P6SM VCSH OVC006
KZLC FIR / North America



MET'MAP, your aeronautical weather chart ! - Copyright ORBIFLY December 2007 - Disclaimer

ORBIFLY MET'MAP TEAM :

Programming & Development : Alexandra Zaïnal
Original concept : Baudouin d'Aumeries
Technical & hardware support : Manuel Goepfert
Assistance : Marc-Olivier Méhu




SOURCES & CREDITS :

   NOAA       Earth
Advisory